Time;durP1;ratioP1;P1;durP2;ratioP2;P2;SDS_P1;SDS_P2;PMS_P1;PMS_P2;Temp;Humidity;BMP_temperature;BMP_pressure;BME280_temperature;BME280_humidity;BME280_pressure;Samples;Min_cycle;Max_cycle;Signal;HPM_P1;HPM_P2
2023/06/28 00:00:34;;;;;;;8.80;3.40;;;16.20;99.90;;;;;;4913398;29;20047;-83
2023/06/28 00:03:00;;;;;;;5.70;2.55;;;16.30;99.90;;;;;;4905504;29;20471;-83
2023/06/28 00:05:26;;;;;;;7.32;1.88;;;16.10;99.90;;;;;;4923133;29;20411;-83
2023/06/28 00:07:54;;;;;;;5.82;2.15;;;16.30;99.90;;;;;;4929974;29;20497;-82
2023/06/28 00:10:22;;;;;;;7.40;3.00;;;16.30;99.90;;;;;;4909624;29;20040;-83
2023/06/28 00:12:48;;;;;;;9.73;2.67;;;16.30;99.90;;;;;;4905111;29;20111;-83
2023/06/28 00:15:13;;;;;;;6.85;2.47;;;16.30;99.90;;;;;;4910987;29;20456;-82
2023/06/28 00:17:39;;;;;;;6.28;2.30;;;16.20;99.90;;;;;;4928000;29;20054;-82
2023/06/28 00:20:10;;;;;;;13.13;3.10;;;16.20;99.90;;;;;;4911182;29;20036;-82
2023/06/28 00:22:39;;;;;;;10.18;3.40;;;16.20;99.90;;;;;;4907549;29;20079;-82
2023/06/28 00:25:05;;;;;;;9.15;3.45;;;16.20;99.90;;;;;;4927971;29;20502;-82
2023/06/28 00:27:31;;;;;;;12.15;3.42;;;16.20;99.90;;;;;;4929209;29;20075;-82
2023/06/28 00:30:00;;;;;;;9.75;3.45;;;16.10;99.90;;;;;;4898993;29;20063;-82
2023/06/28 00:32:27;;;;;;;9.20;2.85;;;16.10;99.90;;;;;;4924896;29;20103;-82
2023/06/28 00:34:56;;;;;;;7.75;2.70;;;16.00;99.90;;;;;;4910109;29;20091;-82
2023/06/28 00:37:26;;;;;;;5.60;2.28;;;16.10;99.90;;;;;;4904729;29;20106;-82
2023/06/28 00:39:51;;;;;;;7.40;3.40;;;16.00;99.90;;;;;;4910347;29;20043;-82
2023/06/28 00:42:18;;;;;;;8.98;3.83;;;16.00;99.90;;;;;;4912212;29;20036;-82
2023/06/28 00:44:43;;;;;;;9.13;3.03;;;16.00;99.90;;;;;;4894429;29;20546;-82
2023/06/28 00:47:09;;;;;;;9.15;3.42;;;15.90;99.90;;;;;;4928151;29;20043;-82
2023/06/28 00:49:37;;;;;;;12.27;3.17;;;15.90;99.90;;;;;;4903441;29;20487;-82
2023/06/28 00:52:05;;;;;;;10.88;4.13;;;15.90;99.90;;;;;;4923770;29;20407;-82
2023/06/28 00:54:30;;;;;;;7.18;3.13;;;15.80;99.90;;;;;;4909683;29;20046;-82
2023/06/28 00:56:57;;;;;;;6.15;2.42;;;15.70;99.90;;;;;;4924464;29;20044;-82
2023/06/28 00:59:23;;;;;;;9.00;2.85;;;15.60;99.90;;;;;;4913507;29;20087;-82
2023/06/28 01:01:49;;;;;;;5.85;2.47;;;15.60;99.90;;;;;;4927133;29;20055;-82
2023/06/28 01:04:15;;;;;;;6.97;2.78;;;15.60;99.90;;;;;;4911925;29;20076;-83
2023/06/28 01:06:48;;;;;;;10.48;4.28;;;15.70;99.90;;;;;;4910631;29;20044;-82
2023/06/28 01:09:15;;;;;;;10.75;3.63;;;15.70;99.90;;;;;;4900307;29;20102;-82
2023/06/28 01:11:41;;;;;;;5.95;2.05;;;15.60;99.90;;;;;;4927103;29;20047;-82
2023/06/28 01:14:07;;;;;;;10.63;3.78;;;15.60;99.90;;;;;;4906323;29;20098;-82
2023/06/28 01:16:36;;;;;;;11.38;3.55;;;15.60;99.90;;;;;;4909137;29;20119;-82
2023/06/28 01:19:03;;;;;;;8.77;3.35;;;15.60;99.90;;;;;;4911835;29;20044;-82
2023/06/28 01:21:33;;;;;;;10.50;4.35;;;15.50;99.90;;;;;;4908666;29;20056;-82
2023/06/28 01:24:02;;;;;;;8.57;4.38;;;15.50;99.90;;;;;;4905538;29;20052;-82
2023/06/28 01:26:28;;;;;;;10.57;4.65;;;15.40;99.90;;;;;;4904294;29;20494;-82
2023/06/28 01:28:55;;;;;;;12.85;4.88;;;15.40;99.90;;;;;;4925083;29;20051;-82
2023/06/28 01:31:21;;;;;;;10.88;3.83;;;15.30;99.90;;;;;;4909621;29;20047;-82
2023/06/28 01:33:48;;;;;;;7.22;3.28;;;15.20;99.90;;;;;;4927772;29;20071;-82
2023/06/28 01:36:14;;;;;;;11.38;3.90;;;15.20;99.90;;;;;;4926019;29;20118;-82
2023/06/28 01:38:41;;;;;;;9.07;4.07;;;15.20;99.90;;;;;;4903238;29;20040;-82
2023/06/28 01:41:08;;;;;;;6.82;3.67;;;15.30;99.90;;;;;;4903135;29;20123;-82
2023/06/28 01:43:34;;;;;;;8.15;4.13;;;15.10;99.90;;;;;;4929090;29;20038;-82
2023/06/28 01:46:00;;;;;;;12.07;4.32;;;15.20;99.90;;;;;;4906901;29;20635;-82
2023/06/28 01:48:26;;;;;;;11.25;4.45;;;15.10;99.90;;;;;;4915883;29;20126;-82
2023/06/28 01:50:52;;;;;;;12.57;4.20;;;15.00;99.90;;;;;;4913090;29;20079;-81
2023/06/28 01:53:18;;;;;;;12.68;4.72;;;15.00;99.90;;;;;;4919708;29;20032;-82
2023/06/28 01:55:44;;;;;;;10.70;4.72;;;15.00;99.90;;;;;;4917528;29;20044;-82
2023/06/28 01:58:11;;;;;;;8.40;4.00;;;15.00;99.90;;;;;;4897203;29;20128;-82
2023/06/28 02:00:37;;;;;;;6.93;2.90;;;15.10;99.90;;;;;;4928797;29;20047;-82
2023/06/28 02:03:03;;;;;;;7.82;3.70;;;15.10;99.90;;;;;;4927851;29;20038;-82
2023/06/28 02:05:28;;;;;;;7.22;3.03;;;15.20;99.90;;;;;;4905261;29;20047;-82
2023/06/28 02:07:57;;;;;;;10.82;3.53;;;15.20;99.90;;;;;;4928574;29;20095;-82
2023/06/28 02:10:24;;;;;;;7.63;3.42;;;15.30;99.90;;;;;;4923899;29;20043;-83
2023/06/28 02:12:50;;;;;;;7.15;3.72;;;15.50;99.90;;;;;;4916300;29;20486;-83
2023/06/28 02:15:16;;;;;;;8.38;3.58;;;15.40;99.90;;;;;;4926406;29;20035;-83
2023/06/28 02:17:42;;;;;;;9.32;4.35;;;15.30;99.90;;;;;;4913550;29;20047;-82
2023/06/28 02:20:10;;;;;;;12.70;5.07;;;15.40;99.90;;;;;;4900942;29;20048;-82
2023/06/28 02:22:36;;;;;;;10.40;4.90;;;15.20;99.90;;;;;;4925442;29;20048;-83
2023/06/28 02:25:02;;;;;;;8.80;3.90;;;15.20;99.90;;;;;;4915824;29;20122;-82
2023/06/28 02:27:28;;;;;;;12.38;4.85;;;15.10;99.90;;;;;;4928380;29;20063;-82
2023/06/28 02:29:57;;;;;;;11.00;4.75;;;15.00;99.90;;;;;;4931670;29;20054;-82
2023/06/28 02:32:24;;;;;;;10.52;4.13;;;15.00;99.90;;;;;;4908602;29;20099;-82
2023/06/28 02:34:49;;;;;;;10.18;5.15;;;15.10;99.90;;;;;;4931879;29;20546;-82
2023/06/28 02:37:17;;;;;;;11.13;4.25;;;15.20;99.90;;;;;;4923052;29;20047;-82
2023/06/28 02:39:45;;;;;;;11.00;4.43;;;15.20;99.90;;;;;;4902542;29;20091;-82
2023/06/28 02:42:11;;;;;;;11.95;4.53;;;15.10;99.90;;;;;;4928918;29;20075;-82
2023/06/28 02:44:39;;;;;;;10.27;3.55;;;15.10;99.90;;;;;;4915672;29;20043;-82
2023/06/28 02:47:05;;;;;;;8.95;4.35;;;15.20;99.90;;;;;;4906497;29;20071;-83
2023/06/28 02:49:31;;;;;;;9.15;4.70;;;15.20;99.90;;;;;;4923653;29;20096;-83
2023/06/28 02:51:56;;;;;;;11.02;4.88;;;15.20;99.90;;;;;;4913943;29;20036;-83
2023/06/28 02:54:22;;;;;;;8.73;3.72;;;15.10;99.90;;;;;;4915876;29;20554;-82
2023/06/28 02:56:51;;;;;;;10.30;3.88;;;15.10;99.90;;;;;;4925928;29;20036;-82
2023/06/28 02:59:17;;;;;;;11.23;4.60;;;15.10;99.90;;;;;;4908977;29;20053;-83
2023/06/28 03:01:43;;;;;;;7.70;4.10;;;15.10;99.90;;;;;;4910649;29;20054;-83
2023/06/28 03:04:08;;;;;;;8.13;3.70;;;15.10;99.90;;;;;;4912891;29;20063;-83
2023/06/28 03:06:35;;;;;;;7.18;3.00;;;15.20;99.90;;;;;;4884109;29;20103;-83
2023/06/28 03:09:01;;;;;;;9.00;4.07;;;15.40;99.90;;;;;;4929218;29;20043;-83
2023/06/28 03:11:26;;;;;;;7.55;3.97;;;15.20;99.90;;;;;;4930446;29;20036;-83
2023/06/28 03:13:55;;;;;;;8.27;3.92;;;15.30;99.90;;;;;;4925791;29;20038;-82
2023/06/28 03:16:27;;;;;;;8.10;4.00;;;15.10;99.90;;;;;;4904647;29;20036;-83
2023/06/28 03:18:54;;;;;;;12.25;4.90;;;15.00;99.90;;;;;;4928976;29;20035;-82
2023/06/28 03:21:20;;;;;;;8.40;4.20;;;14.90;99.90;;;;;;4907863;29;20150;-82
2023/06/28 03:23:45;;;;;;;10.57;4.85;;;14.90;99.90;;;;;;4927000;29;20051;-82
2023/06/28 03:26:11;;;;;;;8.10;4.53;;;14.90;99.90;;;;;;4914177;29;20106;-83
2023/06/28 03:28:37;;;;;;;8.48;4.45;;;14.80;99.90;;;;;;4928387;29;20422;-82
2023/06/28 03:31:03;;;;;;;11.48;4.70;;;14.70;99.90;;;;;;4897782;29;20394;-83
2023/06/28 03:33:28;;;;;;;8.77;4.45;;;14.70;99.90;;;;;;4913123;29;20535;-83
2023/06/28 03:35:54;;;;;;;11.63;4.25;;;14.70;99.90;;;;;;4907946;29;20054;-82
2023/06/28 03:38:20;;;;;;;7.38;3.45;;;14.70;99.90;;;;;;4907778;29;20048;-82
2023/06/28 03:40:45;;;;;;;8.30;3.83;;;14.80;99.90;;;;;;4910094;29;20087;-82
2023/06/28 03:43:11;;;;;;;8.85;4.15;;;14.70;99.90;;;;;;4930831;29;20032;-82
2023/06/28 03:45:37;;;;;;;11.20;4.40;;;14.80;99.90;;;;;;4929464;29;20130;-83
2023/06/28 03:48:05;;;;;;;12.68;4.53;;;14.90;99.90;;;;;;4924688;29;20394;-82
2023/06/28 03:50:31;;;;;;;11.88;4.75;;;15.00;99.90;;;;;;4907002;29;20047;-82
2023/06/28 03:52:57;;;;;;;10.52;4.05;;;15.10;99.90;;;;;;4930669;29;20118;-82
2023/06/28 03:55:25;;;;;;;8.20;3.88;;;15.10;99.90;;;;;;4896619;29;20058;-82
2023/06/28 03:57:51;;;;;;;10.52;4.32;;;15.10;99.90;;;;;;4928365;29;20050;-83
2023/06/28 04:00:23;;;;;;;9.35;4.32;;;15.10;99.90;;;;;;4912348;29;20401;-82
2023/06/28 04:02:48;;;;;;;9.70;3.53;;;15.20;99.90;;;;;;4927684;29;20044;-83
2023/06/28 04:05:14;;;;;;;11.60;3.92;;;15.10;99.90;;;;;;4912666;29;20047;-82
2023/06/28 04:07:40;;;;;;;10.18;3.83;;;15.30;99.90;;;;;;4908848;29;20134;-82
2023/06/28 04:10:07;;;;;;;10.85;3.88;;;15.20;99.90;;;;;;4905577;29;20079;-82
2023/06/28 04:12:35;;;;;;;11.55;4.47;;;15.30;99.90;;;;;;4926433;29;20035;-83
2023/06/28 04:15:01;;;;;;;5.47;3.05;;;15.30;99.90;;;;;;4922079;29;20554;-82
2023/06/28 04:17:27;;;;;;;9.93;4.38;;;15.30;99.90;;;;;;4925749;29;20043;-82
2023/06/28 04:19:52;;;;;;;6.95;3.28;;;15.30;99.90;;;;;;4921633;29;20070;-82
2023/06/28 04:22:21;;;;;;;7.45;3.60;;;15.40;99.90;;;;;;4896267;29;20047;-82
2023/06/28 04:24:47;;;;;;;12.57;4.40;;;15.40;99.90;;;;;;4908761;29;20039;-82
2023/06/28 04:27:14;;;;;;;10.80;4.55;;;15.40;99.90;;;;;;4922138;29;20071;-83
2023/06/28 04:29:40;;;;;;;9.23;4.05;;;15.40;99.90;;;;;;4924277;29;20052;-82
2023/06/28 04:32:26;;;;;;;9.98;3.85;;;15.40;99.90;;;;;;4911824;29;20040;-83
2023/06/28 04:34:53;;;;;;;9.18;3.83;;;15.40;99.90;;;;;;4928194;29;20038;-83
2023/06/28 04:37:25;;;;;;;9.00;3.58;;;15.50;99.90;;;;;;4913865;29;20055;-81
2023/06/28 04:39:51;;;;;;;9.00;3.42;;;15.50;99.90;;;;;;4911650;29;20080;-81
2023/06/28 04:42:17;;;;;;;11.02;4.53;;;15.50;99.90;;;;;;4894520;29;20075;-81
2023/06/28 04:44:48;;;;;;;9.60;3.53;;;15.50;99.90;;;;;;4925192;29;20036;-82
2023/06/28 04:47:17;;;;;;;9.40;3.75;;;15.60;99.90;;;;;;4921534;29;20051;-81
2023/06/28 04:49:48;;;;;;;9.20;3.80;;;15.60;99.90;;;;;;4930368;29;20035;-81
2023/06/28 04:52:15;;;;;;;9.18;3.47;;;15.60;99.90;;;;;;4912186;29;20039;-82
2023/06/28 04:54:42;;;;;;;5.05;2.97;;;15.70;99.90;;;;;;4929291;29;20507;-82
2023/06/28 04:57:09;;;;;;;10.32;3.42;;;15.60;99.90;;;;;;4919024;29;20043;-82
2023/06/28 04:59:35;;;;;;;8.82;3.55;;;15.60;99.90;;;;;;4904916;29;20040;-82
2023/06/28 05:02:05;;;;;;;6.88;3.10;;;15.60;99.90;;;;;;4912987;29;20443;-81
2023/06/28 05:04:32;;;;;;;6.72;2.75;;;15.60;99.90;;;;;;4928443;29;20039;-82
2023/06/28 05:07:03;;;;;;;6.32;2.67;;;15.60;99.90;;;;;;4929517;29;20428;-81
2023/06/28 05:09:29;;;;;;;6.32;2.53;;;15.70;99.90;;;;;;4905806;29;20051;-82
2023/06/28 05:11:56;;;;;;;9.88;3.65;;;15.70;99.90;;;;;;4911292;29;20086;-81
2023/06/28 05:14:25;;;;;;;7.85;2.60;;;15.80;99.90;;;;;;4902548;29;20044;-82
2023/06/28 05:16:51;;;;;;;6.55;2.75;;;15.70;99.90;;;;;;4896065;29;20039;-81
2023/06/28 05:19:17;;;;;;;5.25;2.60;;;15.70;99.90;;;;;;4905942;29;20050;-81
2023/06/28 05:21:45;;;;;;;6.72;2.90;;;15.70;99.90;;;;;;4908556;29;20043;-81
2023/06/28 05:24:11;;;;;;;7.28;2.40;;;15.70;99.90;;;;;;4916885;29;20031;-82
2023/06/28 05:26:37;;;;;;;7.00;2.95;;;15.80;99.90;;;;;;4906838;29;20040;-82
2023/06/28 05:29:03;;;;;;;7.03;2.25;;;15.80;99.90;;;;;;4895129;29;20078;-82
2023/06/28 05:31:28;;;;;;;7.00;2.75;;;15.80;99.90;;;;;;4911429;29;20043;-81
2023/06/28 05:33:54;;;;;;;7.03;2.67;;;15.80;99.90;;;;;;4907142;29;20047;-81
2023/06/28 05:36:21;;;;;;;5.88;2.50;;;15.80;99.90;;;;;;4906781;29;20402;-81
2023/06/28 05:38:47;;;;;;;9.40;2.60;;;15.80;99.90;;;;;;4928834;29;20486;-81
2023/06/28 05:41:15;;;;;;;7.65;2.63;;;15.80;99.90;;;;;;4896685;29;20059;-81
2023/06/28 05:43:46;;;;;;;5.80;2.45;;;15.80;99.90;;;;;;4907699;29;20047;-82
2023/06/28 05:46:12;;;;;;;4.50;2.20;;;15.80;99.90;;;;;;4924606;29;20474;-82
2023/06/28 05:48:38;;;;;;;8.52;2.90;;;15.90;99.90;;;;;;4911406;29;20075;-82
2023/06/28 05:51:14;;;;;;;4.78;2.70;;;15.90;99.90;;;;;;4923528;29;20487;-84
2023/06/28 05:53:53;;;;;;;9.77;3.13;;;15.90;99.90;;;;;;4910843;29;20051;-81
2023/06/28 05:56:19;;;;;;;6.95;2.58;;;16.00;99.90;;;;;;4931808;29;20484;-83
2023/06/28 05:58:45;;;;;;;8.50;3.38;;;16.00;99.90;;;;;;4914360;29;20036;-82
2023/06/28 06:01:11;;;;;;;6.97;2.72;;;16.10;99.90;;;;;;4930407;29;20058;-82
2023/06/28 06:03:36;;;;;;;7.07;3.30;;;16.20;99.90;;;;;;4928536;29;20388;-82
2023/06/28 06:06:02;;;;;;;7.15;3.13;;;16.20;99.90;;;;;;4912104;29;20039;-81
2023/06/28 06:08:28;;;;;;;8.52;3.30;;;16.20;99.90;;;;;;4908856;29;20047;-81
2023/06/28 06:10:54;;;;;;;8.52;3.83;;;16.30;99.90;;;;;;4931221;29;20040;-82
2023/06/28 06:13:19;;;;;;;8.02;2.85;;;16.30;99.90;;;;;;4928703;29;20498;-83
2023/06/28 06:15:45;;;;;;;7.03;3.05;;;16.40;99.90;;;;;;4906311;29;20040;-82
2023/06/28 06:18:11;;;;;;;6.30;3.17;;;16.30;99.90;;;;;;4913067;29;20146;-81
2023/06/28 06:20:37;;;;;;;7.50;3.53;;;16.30;99.90;;;;;;4930485;29;20043;-81
2023/06/28 06:23:02;;;;;;;7.60;3.88;;;16.30;99.90;;;;;;4928835;29;20036;-81
2023/06/28 06:25:28;;;;;;;11.40;3.83;;;16.30;99.90;;;;;;4928950;29;20047;-82
2023/06/28 06:27:54;;;;;;;7.60;3.72;;;16.30;99.90;;;;;;4929078;29;20048;-81
2023/06/28 06:30:20;;;;;;;10.27;4.60;;;16.40;99.90;;;;;;4898693;29;20423;-81
2023/06/28 06:32:45;;;;;;;10.13;4.60;;;16.40;99.90;;;;;;4896834;29;20509;-82
2023/06/28 06:35:12;;;;;;;9.20;4.32;;;16.50;99.90;;;;;;4908232;29;20032;-83
2023/06/28 06:37:38;;;;;;;6.90;3.88;;;16.50;99.90;;;;;;4901107;29;20040;-83
2023/06/28 06:40:07;;;;;;;10.05;4.78;;;16.50;99.90;;;;;;4909044;29;20046;-81
2023/06/28 06:42:33;;;;;;;11.75;4.65;;;16.50;99.90;;;;;;4909336;29;20044;-81
2023/06/28 06:44:59;;;;;;;10.25;5.38;;;16.50;99.90;;;;;;4912757;29;20075;-81
2023/06/28 06:47:24;;;;;;;11.75;5.40;;;16.50;99.90;;;;;;4926311;29;20471;-83
2023/06/28 06:49:50;;;;;;;12.75;5.70;;;16.50;99.90;;;;;;4930743;29;20051;-84
2023/06/28 06:52:16;;;;;;;11.18;5.40;;;16.50;99.90;;;;;;4905475;29;20040;-82
2023/06/28 06:54:41;;;;;;;8.25;4.38;;;16.50;99.90;;;;;;4930314;29;20048;-83
2023/06/28 06:57:07;;;;;;;10.55;5.63;;;16.60;99.90;;;;;;4913368;29;20439;-82
2023/06/28 06:59:36;;;;;;;12.88;5.22;;;16.60;99.90;;;;;;4926217;29;20040;-84
2023/06/28 07:02:02;;;;;;;12.73;5.47;;;16.70;99.90;;;;;;4910706;29;20071;-85
2023/06/28 07:04:28;;;;;;;9.18;5.32;;;16.70;99.90;;;;;;4915322;29;20494;-84
2023/06/28 07:06:55;;;;;;;9.25;4.50;;;16.60;99.90;;;;;;4907484;29;20051;-83
2023/06/28 07:09:20;;;;;;;9.38;5.05;;;16.60;99.90;;;;;;4903449;29;20460;-84
2023/06/28 07:12:06;;;;;;;9.52;5.05;;;16.60;99.90;;;;;;4926581;29;20417;-84
2023/06/28 07:14:32;;;;;;;12.65;5.72;;;16.60;99.90;;;;;;4927775;29;20047;-84
2023/06/28 07:16:57;;;;;;;11.15;4.57;;;16.60;99.90;;;;;;4929214;29;20031;-83
2023/06/28 07:19:23;;;;;;;10.48;4.97;;;16.60;99.90;;;;;;4924980;29;20044;-84
2023/06/28 07:21:49;;;;;;;10.43;5.50;;;16.60;99.90;;;;;;4933558;29;20035;-84
2023/06/28 07:24:14;;;;;;;13.55;5.40;;;16.60;99.90;;;;;;4909192;29;20131;-85
2023/06/28 07:26:40;;;;;;;11.38;5.82;;;16.50;99.90;;;;;;4914341;29;20077;-84
2023/06/28 07:29:06;;;;;;;22.70;18.75;;;16.50;99.90;;;;;;4898929;29;20049;-85
2023/06/28 07:31:32;;;;;;;13.35;6.25;;;16.50;99.90;;;;;;4907577;29;20039;-84
2023/06/28 07:33:58;;;;;;;17.80;6.32;;;16.50;99.90;;;;;;4912117;29;20567;-84
2023/06/28 07:36:24;;;;;;;18.20;7.65;;;16.40;99.90;;;;;;4915286;29;20091;-84
2023/06/28 07:38:50;;;;;;;29.70;7.70;;;16.40;99.90;;;;;;4907205;29;20048;-84
2023/06/28 07:41:17;;;;;;;16.15;6.95;;;16.50;99.90;;;;;;4915759;29;20442;-84
2023/06/28 07:43:43;;;;;;;16.67;6.68;;;16.50;99.90;;;;;;4935837;29;20031;-84
2023/06/28 07:46:08;;;;;;;15.20;6.90;;;16.60;99.90;;;;;;4932366;29;20175;-84
2023/06/28 07:48:34;;;;;;;14.90;6.18;;;16.60;99.90;;;;;;4903061;29;20214;-84
2023/06/28 07:51:00;;;;;;;15.20;6.72;;;16.60;99.90;;;;;;4909709;29;20051;-84
2023/06/28 07:53:26;;;;;;;15.27;6.18;;;16.60;99.90;;;;;;4912961;29;20035;-85
2023/06/28 07:55:51;;;;;;;15.55;6.40;;;16.70;99.90;;;;;;4897386;29;20094;-85
2023/06/28 07:58:17;;;;;;;16.88;6.03;;;16.70;99.90;;;;;;4929684;29;20051;-85
2023/06/28 08:00:43;;;;;;;10.23;6.43;;;16.70;99.90;;;;;;4923099;29;20131;-85
2023/06/28 08:03:09;;;;;;;14.38;5.68;;;16.70;99.90;;;;;;4924056;29;20054;-85
2023/06/28 08:05:40;;;;;;;13.27;6.80;;;16.70;99.90;;;;;;4910050;29;20039;-85
2023/06/28 08:08:06;;;;;;;13.65;6.78;;;16.70;99.90;;;;;;4929045;29;20040;-85
2023/06/28 08:10:32;;;;;;;14.02;6.45;;;16.70;99.90;;;;;;4914702;29;20040;-84
2023/06/28 08:12:58;;;;;;;11.65;6.18;;;16.70;99.90;;;;;;4891647;29;20040;-84
2023/06/28 08:15:26;;;;;;;13.30;7.05;;;16.70;99.90;;;;;;4911458;29;20040;-84
2023/06/28 08:17:55;;;;;;;13.02;7.25;;;16.70;99.90;;;;;;4913925;29;20043;-84
2023/06/28 08:20:21;;;;;;;13.80;7.57;;;16.80;99.90;;;;;;4934147;29;20072;-84
2023/06/28 08:22:47;;;;;;;13.18;7.38;;;16.80;99.90;;;;;;4928650;29;20407;-84
2023/06/28 08:25:13;;;;;;;11.65;6.40;;;16.90;99.90;;;;;;4924821;29;20050;-84
2023/06/28 08:27:38;;;;;;;12.45;6.97;;;16.80;99.90;;;;;;4930232;29;20047;-84
2023/06/28 08:30:05;;;;;;;15.20;7.22;;;16.90;99.90;;;;;;4919220;29;20047;-84
2023/06/28 08:32:34;;;;;;;12.18;6.90;;;17.00;99.90;;;;;;4914310;29;20095;-85
2023/06/28 08:35:01;;;;;;;14.63;7.82;;;17.00;99.90;;;;;;4931407;29;20053;-84
2023/06/28 08:37:29;;;;;;;14.30;8.00;;;17.10;99.90;;;;;;4926124;29;20119;-84
2023/06/28 08:39:55;;;;;;;15.30;8.32;;;17.10;99.90;;;;;;4925765;29;20127;-85
2023/06/28 08:42:22;;;;;;;9.50;6.47;;;17.20;99.90;;;;;;4927608;29;20126;-85
2023/06/28 08:44:50;;;;;;;11.43;6.80;;;17.20;99.90;;;;;;4923705;29;20040;-85
2023/06/28 08:47:16;;;;;;;13.25;7.53;;;17.10;99.90;;;;;;4907635;29;20472;-84
2023/06/28 08:49:42;;;;;;;11.68;6.57;;;17.20;99.90;;;;;;4931059;29;20119;-83
2023/06/28 08:52:09;;;;;;;16.92;7.88;;;17.20;99.90;;;;;;4907391;29;20495;-84
2023/06/28 08:54:37;;;;;;;11.25;7.15;;;17.20;99.90;;;;;;4908430;29;20040;-82
2023/06/28 08:57:04;;;;;;;12.98;7.00;;;17.20;99.90;;;;;;4929050;29;20062;-85
2023/06/28 08:59:30;;;;;;;10.95;6.93;;;17.20;99.90;;;;;;4906526;29;20050;-83
2023/06/28 09:01:59;;;;;;;12.07;8.13;;;17.30;99.90;;;;;;4896429;29;20130;-84
2023/06/28 09:04:26;;;;;;;13.55;7.07;;;17.40;99.90;;;;;;4929237;29;20039;-88
2023/06/28 09:06:53;;;;;;;16.80;7.72;;;17.40;99.90;;;;;;4924186;29;20044;-84
2023/06/28 09:09:19;;;;;;;10.07;6.40;;;17.40;99.90;;;;;;4893407;29;20043;-87
2023/06/28 09:11:45;;;;;;;12.57;7.80;;;17.20;99.90;;;;;;4911715;29;20345;-84
2023/06/28 09:14:12;;;;;;;16.25;7.07;;;17.30;99.90;;;;;;4912569;29;20487;-84
2023/06/28 09:16:38;;;;;;;13.95;7.53;;;17.30;99.90;;;;;;4924118;29;20044;-83
2023/06/28 09:19:04;;;;;;;11.50;6.45;;;17.30;99.90;;;;;;4917241;29;20074;-83
2023/06/28 09:21:31;;;;;;;11.10;7.75;;;17.50;99.90;;;;;;4912665;29;20446;-82
2023/06/28 09:23:57;;;;;;;11.35;7.47;;;17.30;99.90;;;;;;4908465;29;20044;-84
2023/06/28 09:26:33;;;;;;;13.07;7.88;;;17.40;99.90;;;;;;4916478;29;20047;-83
2023/06/28 09:29:05;;;;;;;12.15;7.72;;;17.40;99.90;;;;;;4911917;29;20755;-82
2023/06/28 09:31:33;;;;;;;14.75;7.78;;;17.40;99.90;;;;;;4908202;29;20054;-83
2023/06/28 09:33:59;;;;;;;12.13;7.80;;;17.40;99.90;;;;;;4927957;29;20046;-83
2023/06/28 09:36:24;;;;;;;12.82;8.73;;;17.30;99.90;;;;;;4912579;29;20040;-83
2023/06/28 09:38:50;;;;;;;14.23;9.35;;;17.30;99.90;;;;;;4904246;29;20139;-84
2023/06/28 09:41:16;;;;;;;12.57;8.27;;;17.30;99.90;;;;;;4897427;29;20035;-83
2023/06/28 09:43:42;;;;;;;14.60;9.07;;;17.30;99.90;;;;;;4921476;29;20490;-81
2023/06/28 09:46:15;;;;;;;13.02;9.43;;;17.30;99.90;;;;;;4908070;29;20134;-81
2023/06/28 09:48:43;;;;;;;15.40;9.15;;;17.30;99.90;;;;;;4905491;29;20047;-82
2023/06/28 09:51:11;;;;;;;17.25;9.93;;;17.30;99.90;;;;;;4923786;29;20767;-81
2023/06/28 09:53:48;;;;;;;17.33;10.10;;;17.30;99.90;;;;;;4910767;29;20051;-81
2023/06/28 09:56:13;;;;;;;14.73;9.65;;;17.40;99.90;;;;;;4910654;29;20479;-81
2023/06/28 09:58:39;;;;;;;15.60;10.48;;;17.40;99.90;;;;;;4908647;29;20086;-81
2023/06/28 10:01:05;;;;;;;17.20;11.27;;;17.40;99.90;;;;;;4895821;29;20074;-81
2023/06/28 10:03:32;;;;;;;17.38;11.50;;;17.70;99.90;;;;;;4910887;29;20047;-81
2023/06/28 10:05:59;;;;;;;17.23;11.27;;;17.50;99.90;;;;;;4910894;29;20062;-81
2023/06/28 10:08:25;;;;;;;19.77;10.80;;;17.50;99.90;;;;;;4906618;29;20035;-81
2023/06/28 10:10:53;;;;;;;17.15;10.57;;;17.40;99.90;;;;;;4923783;29;20032;-82
2023/06/28 10:13:20;;;;;;;20.30;11.27;;;17.40;99.90;;;;;;4900098;29;20040;-82
2023/06/28 10:16:01;;;;;;;20.27;13.18;;;17.40;99.90;;;;;;4906067;29;20036;-81
2023/06/28 10:18:28;;;;;;;19.45;12.35;;;17.40;99.90;;;;;;4908862;29;20060;-82
2023/06/28 10:20:54;;;;;;;21.38;12.68;;;17.50;99.90;;;;;;4921114;29;20068;-82
2023/06/28 10:23:20;;;;;;;22.92;12.73;;;17.30;99.90;;;;;;4926813;29;20040;-82
2023/06/28 10:25:46;;;;;;;21.60;13.50;;;17.30;99.90;;;;;;4894595;29;20040;-81
2023/06/28 10:28:15;;;;;;;21.02;13.70;;;17.40;99.90;;;;;;4908459;29;20051;-82
2023/06/28 10:30:42;;;;;;;19.45;12.45;;;17.40;99.90;;;;;;4920039;29;20032;-81
2023/06/28 10:33:15;;;;;;;20.42;12.90;;;17.40;99.90;;;;;;4927937;29;20040;-80
2023/06/28 10:35:43;;;;;;;21.25;12.55;;;17.40;99.90;;;;;;4912648;29;20043;-81
2023/06/28 10:38:09;;;;;;;22.65;13.73;;;17.40;99.90;;;;;;4904667;29;20395;-80
2023/06/28 10:40:35;;;;;;;24.35;14.50;;;17.50;99.90;;;;;;4910095;29;20066;-81
2023/06/28 10:43:01;;;;;;;20.13;13.38;;;17.50;99.90;;;;;;4932055;29;20039;-81
2023/06/28 10:45:33;;;;;;;21.67;13.55;;;17.50;99.90;;;;;;4928197;29;20044;-80
2023/06/28 10:47:59;;;;;;;23.38;13.80;;;17.40;99.90;;;;;;4927790;29;20446;-81
2023/06/28 10:50:25;;;;;;;25.73;14.93;;;17.40;99.90;;;;;;4926983;29;20052;-81
2023/06/28 10:52:56;;;;;;;22.75;13.68;;;17.40;99.90;;;;;;4930687;29;20040;-81
2023/06/28 10:55:29;;;;;;;23.05;14.27;;;17.40;99.90;;;;;;4911848;29;20095;-81
2023/06/28 10:58:11;;;;;;;26.15;14.32;;;17.40;99.90;;;;;;4904671;29;20040;-81
2023/06/28 11:00:37;;;;;;;21.42;13.27;;;17.50;99.90;;;;;;4926964;29;20143;-80
2023/06/28 11:03:04;;;;;;;23.13;13.95;;;17.50;99.90;;;;;;4928425;29;20720;-81
2023/06/28 11:05:45;;;;;;;24.42;13.52;;;17.50;99.90;;;;;;4913468;29;20047;-81
2023/06/28 11:08:15;;;;;;;25.90;14.30;;;17.60;99.90;;;;;;4926443;29;20035;-81
2023/06/28 11:10:44;;;;;;;19.60;13.43;;;17.60;99.90;;;;;;4911819;29;20119;-81
2023/06/28 11:13:14;;;;;;;20.15;12.93;;;17.60;99.90;;;;;;4913146;29;20126;-81
2023/06/28 11:15:45;;;;;;;20.10;13.45;;;17.70;99.90;;;;;;4927100;29;20171;-81
2023/06/28 11:18:18;;;;;;;19.25;13.50;;;17.60;99.90;;;;;;4913523;29;20035;-81
2023/06/28 11:20:58;;;;;;;22.02;13.70;;;17.60;99.90;;;;;;4912797;29;20047;-81
2023/06/28 11:23:37;;;;;;;21.25;13.07;;;17.60;99.90;;;;;;4917718;29;20055;-81
2023/06/28 11:26:07;;;;;;;19.90;12.40;;;17.50;99.90;;;;;;4912130;29;20059;-81
2023/06/28 11:28:35;;;;;;;18.65;12.73;;;17.60;99.90;;;;;;4898515;29;20576;-80
2023/06/28 11:31:19;;;;;;;16.38;11.95;;;17.70;99.90;;;;;;4929241;29;20517;-80
2023/06/28 11:33:45;;;;;;;20.55;12.73;;;17.60;99.90;;;;;;4925625;29;20035;-84
2023/06/28 11:36:12;;;;;;;19.60;12.98;;;17.60;99.90;;;;;;4914361;29;20028;-81
2023/06/28 11:38:41;;;;;;;18.55;12.65;;;17.60;99.90;;;;;;4930840;29;20075;-81
2023/06/28 11:41:07;;;;;;;18.92;12.65;;;17.70;99.90;;;;;;4927261;29;20146;-81
2023/06/28 11:43:33;;;;;;;19.05;12.55;;;17.70;99.90;;;;;;4929411;29;20126;-81
2023/06/28 11:45:59;;;;;;;18.90;12.77;;;17.70;99.90;;;;;;4905305;29;20115;-80
2023/06/28 11:48:25;;;;;;;19.95;12.45;;;17.80;99.90;;;;;;4901529;29;20044;-81
2023/06/28 11:51:01;;;;;;;20.65;12.55;;;17.80;99.90;;;;;;4911691;29;20047;-81
2023/06/28 11:53:28;;;;;;;18.77;12.77;;;17.80;99.90;;;;;;4919968;29;20051;-81
2023/06/28 11:55:55;;;;;;;19.67;12.90;;;17.90;99.90;;;;;;4898144;29;20047;-82
2023/06/28 11:58:31;;;;;;;17.77;12.45;;;17.90;99.90;;;;;;4914993;29;20055;-81
2023/06/28 12:00:57;;;;;;;18.98;13.07;;;17.90;99.90;;;;;;4909023;29;20048;-82
2023/06/28 12:03:37;;;;;;;17.63;12.32;;;17.90;99.90;;;;;;4912601;29;20106;-81
2023/06/28 12:06:06;;;;;;;21.02;12.20;;;18.00;99.90;;;;;;4918766;29;20043;-82
2023/06/28 12:08:33;;;;;;;17.30;13.13;;;18.00;99.90;;;;;;4899018;29;20119;-83
2023/06/28 12:11:00;;;;;;;17.17;13.35;;;18.00;99.90;;;;;;4928140;29;20174;-84
2023/06/28 12:13:27;;;;;;;18.23;12.65;;;18.00;99.90;;;;;;4908499;29;20050;-83
2023/06/28 12:15:54;;;;;;;18.27;13.00;;;18.00;99.90;;;;;;4929357;29;20062;-83
2023/06/28 12:18:19;;;;;;;18.15;12.23;;;18.00;99.90;;;;;;4908722;29;20126;-83
2023/06/28 12:20:45;;;;;;;18.70;12.77;;;18.00;99.90;;;;;;4930632;29;20130;-83
2023/06/28 12:23:13;;;;;;;15.75;11.88;;;18.00;99.90;;;;;;4907430;29;20764;-83
2023/06/28 12:25:42;;;;;;;16.83;12.80;;;18.00;99.90;;;;;;4923843;29;20044;-83
2023/06/28 12:28:11;;;;;;;17.20;11.93;;;18.10;99.90;;;;;;4928652;29;20143;-83
2023/06/28 12:30:37;;;;;;;19.20;13.18;;;18.10;99.90;;;;;;4931008;29;20508;-83
2023/06/28 12:33:09;;;;;;;15.77;12.15;;;18.10;99.90;;;;;;4910108;29;20040;-84
2023/06/28 12:35:46;;;;;;;16.17;11.55;;;18.10;99.90;;;;;;4912079;29;20134;-83
2023/06/28 12:38:17;;;;;;;16.67;12.35;;;18.20;99.90;;;;;;4910603;29;20048;-86